Aérodrome :
LOGIN :

S'inscrire | Disclaimer

   EN    FR    IT 

 










Légende :    VFR   VFR Marginal   IFR   IFR Intensif   IFR Très Intensif
Visi : 
Plafond : 
>= 8 km
>= 3000ft
5 à 8 km
1000 à 3000 ft
1500m à 5 km
500 à 1000 ft
800 à 1500m
200 à 500 ft
< 800m
< 200 ft
Symboles :   Orages  Brouillard  Fortes neiges  Fortes précipitations  Vent > 20 kt
SIGMETs :   Divers  Orages  Givrage  Turbulence  Onde Orograph.  Cendres Volcan.






- Altitude de l'aérodrome : 768 ft
- Code IATA : MXP


LIMC - Milano Malpensa

DERNIER METAR :
  • 232020Z 02005KT 9999 R35R/P2000N R17L/1400D R35L/P2000N BCFG NSC 04/03 Q0999 NOSIG

METARs EXPIRÉS :
  • 231950Z 01004KT 9999 R35R/0550D R17L/1200D R35L/P2000N BCFG NSC 04/03 Q0998 NOSIG
  • 231920Z VRB01KT 9999 R35R/1500D R17L/1700D R35L/0700D BCFG NSC 05/03 Q0998 NOSIG
  • 231850Z VRB02KT 9999 MIFG NSC 06/05 Q0998 NOSIG
  • 231820Z 10004KT CAVOK 05/04 Q0997 NOSIG
  • 231750Z 13003KT CAVOK 07/05 Q0997 NOSIG
  • 231720Z 09002KT CAVOK 08/05 Q0997 NOSIG
  • 231650Z 09003KT CAVOK 09/04 Q0996 NOSIG
  • 231620Z 10004KT CAVOK 09/05 Q0996 NOSIG
  • 231550Z 15005KT 110V180 9999 SCT020 10/05 Q0996 NOSIG

TAF TAF LIMC
Valide du 23 à 18h jusqu'au 25 à 00h UTC


231700Z 2318/2424 VRB05KT 9999 FEW020
TEMPO 2320/2406 2000 BR
TEMPO 2412/2418 SHRA



MET'MAP, la Météo Aéronautique d'un coup d'oeil ! - Copyright ORBIFLY Décembre 2007 - Disclaimer

ORBIFLY MET'MAP TEAM :

Programmation & Développement : Alexandra Zaïnal
Sur une idée originale de : Baudouin d'Aumeries
Soutien technique & logistique : Manuel Goepfert
Assistance : Marc-Olivier Méhu




SOURCES & CREDITS :

   NOAA